createdAt,value
2022-08-19T00:01:29.115Z,92.41
2022-08-19T00:03:59.604Z,92.53
2022-08-19T00:06:26.733Z,92.77
2022-08-19T00:08:53.273Z,92.56
2022-08-19T00:11:25.492Z,92.43
2022-08-19T00:13:52.985Z,93.07
2022-08-19T00:16:19.775Z,92.98
2022-08-19T00:18:51.924Z,93.85
2022-08-19T00:21:18.557Z,93.18
2022-08-19T00:23:45.087Z,93.26
2022-08-19T00:26:12.157Z,92.62
2022-08-19T00:28:40.104Z,93.14
2022-08-19T00:31:08.524Z,94.20
2022-08-19T00:33:35.408Z,94.49
2022-08-19T00:36:02.970Z,95.01
2022-08-19T00:38:37.361Z,94.48
2022-08-19T00:41:04.939Z,95.01
2022-08-19T00:43:31.487Z,95.52
2022-08-19T00:45:59.510Z,95.46
2022-08-19T00:48:26.129Z,95.24
2022-08-19T00:50:54.554Z,95.56
2022-08-19T00:53:25.042Z,94.75
2022-08-19T00:55:54.107Z,95.11
2022-08-19T00:58:25.463Z,95.30
2022-08-19T01:00:52.030Z,95.36
2022-08-19T01:03:21.438Z,95.04
2022-08-19T01:05:49.581Z,94.52
2022-08-19T01:08:18.022Z,93.78
2022-08-19T01:10:47.961Z,94.25
2022-08-19T01:13:16.026Z,93.82
2022-08-19T01:15:45.902Z,94.38
2022-08-19T01:18:15.033Z,93.99
2022-08-19T01:20:43.431Z,93.58
2022-08-19T01:23:11.661Z,93.31
2022-08-19T01:25:44.035Z,93.42
2022-08-19T01:28:17.018Z,93.66
2022-08-19T01:30:44.429Z,93.69
2022-08-19T01:33:17.567Z,93.75
2022-08-19T01:35:44.157Z,94.14
2022-08-19T01:38:21.965Z,93.46
2022-08-19T01:40:48.550Z,93.92
2022-08-19T01:43:15.218Z,93.92
2022-08-19T01:45:42.069Z,94.17
2022-08-19T01:48:09.206Z,94.17
2022-08-19T01:50:36.071Z,94.21
2022-08-19T01:53:06.671Z,94.21
2022-08-19T01:55:41.364Z,94.81
2022-08-19T01:58:13.160Z,95.18
2022-08-19T02:00:40.280Z,94.92
2022-08-19T02:03:06.813Z,95.05
2022-08-19T02:05:33.563Z,94.92
2022-08-19T02:08:00.105Z,95.29
2022-08-19T02:10:26.646Z,95.48
2022-08-19T02:12:54.738Z,95.00
2022-08-19T02:15:21.995Z,94.53
2022-08-19T02:17:49.246Z,93.96
2022-08-19T02:20:16.300Z,93.90
2022-08-19T02:22:43.831Z,94.12
2022-08-19T02:25:11.106Z,94.57
2022-08-19T02:27:37.704Z,95.04
2022-08-19T02:30:08.449Z,94.67
2022-08-19T02:32:44.508Z,94.95
2022-08-19T02:35:12.819Z,94.20
2022-08-19T02:37:39.499Z,93.47
2022-08-19T02:40:12.412Z,92.74
2022-08-19T02:42:39.519Z,92.99
2022-08-19T02:45:08.121Z,93.74
2022-08-19T02:47:35.099Z,95.13
2022-08-19T02:50:03.282Z,95.55
2022-08-19T02:52:29.795Z,95.41
2022-08-19T02:54:56.310Z,95.64
2022-08-19T02:57:22.810Z,95.50
2022-08-19T02:59:49.318Z,95.72
2022-08-19T03:02:17.351Z,95.68
2022-08-19T03:04:43.886Z,95.83
2022-08-19T03:07:13.490Z,96.00
2022-08-19T03:09:40.255Z,95.86
2022-08-19T03:12:07.287Z,96.52
2022-08-19T03:14:34.530Z,96.50
2022-08-19T03:17:01.398Z,96.96
2022-08-19T03:19:29.334Z,96.71
2022-08-19T03:21:55.931Z,96.98
2022-08-19T03:24:22.530Z,96.78
2022-08-19T03:26:51.560Z,96.71
2022-08-19T03:29:30.448Z,96.65
2022-08-19T03:31:57.874Z,96.47
2022-08-19T03:34:27.039Z,96.80
2022-08-19T03:36:55.776Z,96.60
2022-08-19T03:39:22.683Z,96.73
2022-08-19T03:41:50.345Z,96.43
2022-08-19T03:44:37.401Z,96.24
2022-08-19T03:47:04.579Z,96.51
2022-08-19T03:49:32.699Z,96.78
2022-08-19T03:52:00.815Z,96.77
2022-08-19T03:54:28.273Z,96.53
2022-08-19T03:56:56.627Z,96.97
2022-08-19T03:59:25.812Z,96.82
2022-08-19T04:01:52.723Z,96.74
2022-08-19T04:04:19.977Z,97.35
2022-08-19T04:06:46.849Z,97.58
2022-08-19T04:09:14.780Z,97.19
2022-08-19T04:11:45.150Z,97.16
2022-08-19T04:14:13.275Z,96.35
2022-08-19T04:16:39.798Z,96.12
2022-08-19T04:19:07.338Z,96.44
2022-08-19T04:21:34.793Z,96.85
2022-08-19T04:24:02.370Z,96.55
2022-08-19T04:26:34.617Z,96.99
2022-08-19T04:29:01.926Z,97.08
2022-08-19T04:31:31.156Z,96.93
2022-08-19T04:34:00.383Z,97.19
2022-08-19T04:36:30.227Z,96.86
2022-08-19T04:38:59.141Z,95.78
2022-08-19T04:41:26.701Z,96.61
2022-08-19T04:43:54.561Z,97.30
2022-08-19T04:46:39.632Z,97.84
2022-08-19T04:49:12.996Z,98.55
2022-08-19T04:51:41.997Z,98.24
2022-08-19T04:54:08.516Z,98.22
2022-08-19T04:56:35.432Z,98.13
2022-08-19T04:59:03.594Z,97.89
2022-08-19T05:01:31.121Z,98.26
2022-08-19T05:03:59.106Z,98.15
2022-08-19T05:06:25.674Z,97.74
2022-08-19T05:08:52.280Z,97.57
2022-08-19T05:11:26.284Z,97.77
2022-08-19T05:13:53.514Z,97.58
2022-08-19T05:16:23.565Z,97.88
2022-08-19T05:18:50.518Z,98.16
2022-08-19T05:21:20.630Z,98.16
2022-08-19T05:23:47.134Z,97.32
2022-08-19T05:26:13.663Z,97.39
2022-08-19T05:28:40.180Z,97.72
2022-08-19T05:31:06.742Z,97.99
2022-08-19T05:33:34.619Z,97.89
2022-08-19T05:36:02.257Z,97.31
2022-08-19T05:38:28.852Z,97.14
2022-08-19T05:40:55.383Z,96.61
2022-08-19T05:43:21.884Z,97.24
2022-08-19T05:45:48.457Z,96.85
2022-08-19T05:48:15.042Z,96.85
2022-08-19T05:50:43.181Z,96.30
2022-08-19T05:53:10.082Z,96.43
2022-08-19T05:55:37.068Z,96.72
2022-08-19T05:58:03.820Z,96.94
2022-08-19T06:00:30.378Z,96.95
2022-08-19T06:02:57.014Z,96.81
2022-08-19T06:05:23.569Z,96.31
2022-08-19T06:07:51.483Z,96.19
2022-08-19T06:10:18.214Z,96.08
2022-08-19T06:12:44.729Z,95.92
2022-08-19T06:15:14.060Z,95.61
2022-08-19T06:17:41.357Z,95.57
2022-08-19T06:20:10.499Z,95.06
2022-08-19T06:22:38.805Z,94.77
2022-08-19T06:25:07.806Z,93.48
2022-08-19T06:27:34.331Z,93.32
2022-08-19T06:30:01.706Z,94.34
2022-08-19T06:32:28.240Z,93.90
2022-08-19T06:34:54.751Z,92.88
2022-08-19T06:37:21.591Z,92.55
2022-08-19T06:39:48.742Z,92.49
2022-08-19T06:42:17.059Z,91.83
2022-08-19T06:44:48.880Z,91.49
2022-08-19T06:47:23.901Z,91.33
2022-08-19T06:49:56.241Z,91.28
2022-08-19T06:52:27.602Z,90.78
2022-08-19T06:54:56.746Z,90.85
2022-08-19T06:57:25.525Z,90.31
2022-08-19T06:59:52.091Z,91.81
2022-08-19T07:02:19.301Z,91.35
2022-08-19T07:04:45.861Z,90.99
2022-08-19T07:07:21.036Z,89.36
2022-08-19T07:09:58.444Z,89.24
2022-08-19T07:12:30.577Z,89.33
2022-08-19T07:14:58.117Z,88.81
2022-08-19T07:17:24.634Z,88.55
2022-08-19T07:19:51.461Z,88.34
2022-08-19T07:22:20.803Z,87.46
2022-08-19T07:24:51.561Z,87.00
2022-08-19T07:27:19.054Z,87.55
2022-08-19T07:29:57.201Z,88.04
2022-08-19T07:32:25.075Z,87.50
2022-08-19T07:34:52.069Z,87.51
2022-08-19T07:37:18.604Z,87.40
2022-08-19T07:39:45.347Z,87.44
2022-08-19T07:42:13.342Z,87.31
2022-08-19T07:47:58.758Z,89.31
2022-08-19T07:49:59.794Z,88.75
2022-08-19T07:52:26.353Z,88.80
2022-08-19T07:54:52.867Z,89.39
2022-08-19T07:57:19.400Z,89.59
2022-08-19T07:59:45.987Z,89.32
2022-08-19T08:02:13.880Z,89.12
2022-08-19T08:04:40.410Z,89.20
2022-08-19T08:07:08.725Z,89.25
2022-08-19T08:09:39.461Z,88.47
2022-08-19T08:12:32.549Z,87.38
2022-08-19T08:14:59.702Z,85.49
2022-08-19T08:17:31.004Z,85.95
2022-08-19T08:20:15.854Z,84.72
2022-08-19T08:22:44.459Z,84.69
2022-08-19T08:25:14.199Z,83.33
2022-08-19T08:27:44.574Z,85.09
2022-08-19T08:30:19.790Z,85.11
2022-08-19T08:32:47.669Z,85.24
2022-08-19T08:35:20.074Z,84.66
2022-08-19T08:37:47.259Z,83.98
2022-08-19T08:40:21.585Z,83.87
2022-08-19T08:42:55.502Z,83.26
2022-08-19T08:45:24.336Z,82.59
2022-08-19T08:47:54.898Z,82.47
2022-08-19T08:50:26.575Z,82.08
2022-08-19T08:52:56.248Z,81.44
2022-08-19T08:55:25.110Z,79.49
2022-08-19T08:57:57.398Z,78.71
2022-08-19T09:00:27.320Z,79.56
2022-08-19T09:02:56.201Z,78.59
2022-08-19T09:05:26.904Z,78.05
2022-08-19T09:08:12.048Z,77.15
2022-08-19T09:10:45.109Z,76.46
2022-08-19T09:13:18.986Z,77.19
2022-08-19T09:15:49.107Z,76.48
2022-08-19T09:18:19.122Z,74.41
2022-08-19T09:20:46.629Z,75.14
2022-08-19T09:23:13.169Z,74.64
2022-08-19T09:25:39.772Z,72.62
2022-08-19T09:28:21.936Z,72.63
2022-08-19T09:30:49.325Z,72.03
2022-08-19T09:33:17.203Z,71.81
2022-08-19T09:35:49.914Z,72.40
2022-08-19T09:38:20.304Z,73.82
2022-08-19T09:40:47.645Z,73.11
2022-08-19T09:43:14.167Z,72.22
2022-08-19T09:45:41.073Z,71.11
2022-08-19T09:48:07.645Z,69.43
2022-08-19T09:50:37.531Z,69.02
2022-08-19T09:53:04.843Z,68.18
2022-08-19T09:55:33.412Z,68.24
2022-08-19T09:58:01.752Z,67.65
2022-08-19T10:00:28.405Z,67.39
2022-08-19T10:02:54.911Z,67.12
2022-08-19T10:05:23.235Z,68.34
2022-08-19T10:07:55.009Z,72.72
2022-08-19T10:10:23.794Z,73.76
2022-08-19T10:12:51.221Z,72.91
2022-08-19T10:15:17.869Z,73.45
2022-08-19T10:17:56.241Z,72.17
2022-08-19T10:20:22.919Z,76.18
2022-08-19T10:22:49.504Z,77.26
2022-08-19T10:25:19.964Z,77.08
2022-08-19T10:27:51.291Z,76.79
2022-08-19T10:30:18.338Z,76.95
2022-08-19T10:32:46.990Z,75.28
2022-08-19T10:35:14.516Z,75.83
2022-08-19T10:37:55.975Z,75.13
2022-08-19T10:40:26.718Z,73.75
2022-08-19T10:42:53.402Z,73.32
2022-08-19T10:45:20.090Z,72.59
2022-08-19T10:47:46.652Z,71.95
2022-08-19T10:50:13.174Z,72.40
2022-08-19T10:52:40.451Z,71.77
2022-08-19T10:55:18.928Z,71.63
2022-08-19T10:58:01.711Z,72.06
2022-08-19T11:00:29.458Z,71.51
2022-08-19T11:02:55.974Z,70.71
2022-08-19T11:05:24.151Z,70.50
2022-08-19T11:07:51.451Z,70.63
2022-08-19T11:10:21.411Z,70.04
2022-08-19T11:12:50.183Z,69.07
2022-08-19T11:15:16.750Z,66.29
2022-08-19T11:17:43.566Z,68.04
2022-08-19T11:20:11.678Z,65.51
2022-08-19T11:22:41.577Z,66.67
2022-08-19T11:25:10.325Z,67.30
2022-08-19T11:27:39.600Z,67.81
2022-08-19T11:30:13.117Z,68.16
2022-08-19T11:32:39.941Z,68.68
2022-08-19T11:35:07.244Z,68.86
2022-08-19T11:37:33.791Z,69.44
2022-08-19T11:40:00.379Z,69.10
2022-08-19T11:42:26.969Z,69.30
2022-08-19T11:44:53.542Z,68.86
2022-08-19T11:47:21.495Z,69.31
2022-08-19T11:49:48.201Z,70.51
2022-08-19T11:52:14.973Z,70.24
2022-08-19T11:54:41.502Z,70.42
2022-08-19T11:57:08.032Z,70.25
2022-08-19T11:59:34.530Z,70.48
2022-08-19T12:02:01.066Z,71.46
2022-08-19T12:04:28.989Z,71.66
2022-08-19T12:06:55.525Z,72.18
2022-08-19T12:09:22.032Z,72.89
2022-08-19T12:11:48.598Z,74.53
2022-08-19T12:14:15.219Z,73.64
2022-08-19T12:16:48.631Z,74.04
2022-08-19T12:19:21.956Z,75.05
2022-08-19T12:21:51.109Z,74.64
2022-08-19T12:24:18.422Z,74.38
2022-08-19T12:26:52.765Z,75.89
2022-08-19T12:29:23.332Z,74.41
2022-08-19T12:31:50.314Z,77.39
2022-08-19T12:34:16.861Z,77.25
2022-08-19T12:36:43.377Z,78.73
2022-08-19T12:39:11.263Z,80.97
2022-08-19T12:41:51.397Z,79.67
2022-08-19T12:44:24.865Z,82.10
2022-08-19T12:46:56.277Z,79.33
2022-08-19T12:49:43.534Z,78.47
2022-08-19T12:52:09.830Z,77.74
2022-08-19T12:54:38.394Z,78.40
2022-08-19T12:57:08.689Z,80.47
2022-08-19T12:59:35.228Z,78.30
2022-08-19T13:02:01.734Z,79.39
2022-08-19T13:04:28.265Z,80.46
2022-08-19T13:06:54.778Z,78.55
2022-08-19T13:09:21.330Z,77.84
2022-08-19T13:11:49.182Z,77.28
2022-08-19T13:14:15.731Z,78.87
2022-08-19T13:16:42.243Z,78.90
2022-08-19T13:19:08.791Z,79.54
2022-08-19T13:21:35.379Z,79.48
2022-08-19T13:24:03.657Z,82.19
2022-08-19T13:26:30.219Z,81.83
2022-08-19T13:28:58.123Z,81.25
2022-08-19T13:31:27.506Z,81.32
2022-08-19T13:33:54.021Z,84.30
2022-08-19T13:36:20.565Z,83.95
2022-08-19T13:38:47.104Z,85.54
2022-08-19T13:41:15.015Z,85.75
2022-08-19T13:43:41.613Z,87.46
2022-08-19T13:46:12.038Z,86.64
2022-08-19T13:48:38.587Z,88.27
2022-08-19T13:51:06.168Z,87.28
2022-08-19T13:53:32.739Z,86.76
2022-08-19T13:55:59.235Z,85.44
2022-08-19T13:58:25.885Z,85.34
2022-08-19T14:00:52.459Z,86.46
2022-08-19T14:03:20.486Z,86.65
2022-08-19T14:05:47.062Z,85.76
2022-08-19T14:08:13.600Z,86.40
2022-08-19T14:10:40.338Z,85.89
2022-08-19T14:13:06.891Z,85.72
2022-08-19T14:15:33.413Z,85.94
2022-08-19T14:18:00.182Z,85.29
2022-08-19T14:20:28.185Z,84.64
2022-08-19T14:22:55.233Z,83.50
2022-08-19T14:25:24.448Z,82.10
2022-08-19T14:27:51.309Z,82.09
2022-08-19T14:30:22.040Z,80.22
2022-08-19T14:32:48.658Z,80.74
2022-08-19T14:35:16.902Z,80.97
2022-08-19T14:37:46.407Z,79.08
2022-08-19T14:40:14.441Z,80.43
2022-08-19T14:42:41.094Z,79.63
2022-08-19T14:45:09.419Z,79.93
2022-08-19T14:47:35.922Z,79.15
2022-08-19T14:50:07.800Z,79.92
2022-08-19T14:52:37.040Z,79.68
2022-08-19T14:55:07.530Z,79.40
2022-08-19T14:57:34.377Z,79.97
2022-08-19T15:00:01.008Z,80.05
2022-08-19T15:02:34.925Z,79.96
2022-08-19T15:05:02.082Z,80.55
2022-08-19T15:07:29.510Z,79.44
2022-08-19T15:09:56.644Z,80.38
2022-08-19T15:12:25.305Z,79.71
2022-08-19T15:14:54.601Z,79.63
2022-08-19T15:17:43.369Z,79.28
2022-08-19T15:20:11.706Z,79.32
2022-08-19T15:22:38.356Z,78.79
2022-08-19T15:25:06.548Z,79.72
2022-08-19T15:27:34.635Z,79.46
2022-08-19T15:30:01.780Z,79.28
2022-08-19T15:32:28.582Z,78.35
2022-08-19T15:34:55.168Z,79.45
2022-08-19T15:37:21.699Z,79.37
2022-08-19T15:39:48.337Z,80.49
2022-08-19T15:42:14.903Z,80.15
2022-08-19T15:45:00.718Z,81.03
2022-08-19T15:47:29.440Z,81.61
2022-08-19T15:50:04.740Z,81.94
2022-08-19T15:52:31.265Z,81.71
2022-08-19T15:54:59.257Z,81.32
2022-08-19T15:57:25.779Z,81.40
2022-08-19T15:59:52.363Z,81.08
2022-08-19T16:02:23.805Z,79.52
2022-08-19T16:04:58.952Z,78.15
2022-08-19T16:07:25.462Z,76.62
2022-08-19T16:09:51.997Z,76.00
2022-08-19T16:12:18.556Z,78.19
2022-08-19T16:14:45.294Z,77.30
2022-08-19T16:17:11.806Z,77.01
2022-08-19T16:19:39.693Z,76.21
2022-08-19T16:22:06.850Z,76.75
2022-08-19T16:24:33.408Z,77.03
2022-08-19T16:26:59.973Z,77.03
2022-08-19T16:29:34.775Z,77.62
2022-08-19T16:32:08.415Z,78.14
2022-08-19T16:34:34.959Z,78.22
2022-08-19T16:37:02.837Z,78.37
2022-08-19T16:39:29.757Z,78.53
2022-08-19T16:41:56.359Z,78.78
2022-08-19T16:44:22.951Z,79.91
2022-08-19T16:46:58.341Z,80.16
2022-08-19T16:49:54.129Z,80.04
2022-08-19T16:52:15.059Z,79.79
2022-08-19T16:54:41.964Z,80.19
2022-08-19T16:57:11.915Z,80.90
2022-08-19T16:59:39.112Z,81.08
2022-08-19T17:02:10.683Z,82.00
2022-08-19T17:04:37.247Z,82.25
2022-08-19T17:07:03.798Z,82.06
2022-08-19T17:09:32.289Z,81.70
2022-08-19T17:11:58.886Z,81.59
2022-08-19T17:14:25.423Z,81.71
2022-08-19T17:16:51.960Z,82.39
2022-08-19T17:19:18.465Z,83.06
2022-08-19T17:21:45.075Z,83.59
2022-08-19T17:24:11.672Z,83.60
2022-08-19T17:26:39.572Z,84.43
2022-08-19T17:29:06.241Z,84.13
2022-08-19T17:31:33.128Z,84.48
2022-08-19T17:34:00.448Z,85.00
2022-08-19T17:36:29.325Z,85.28
2022-08-19T17:38:58.225Z,85.47
2022-08-19T17:41:26.083Z,85.14
2022-08-19T17:43:54.273Z,85.19
2022-08-19T17:46:21.292Z,85.73
2022-08-19T17:48:51.482Z,85.08
2022-08-19T17:51:22.109Z,85.12
2022-08-19T17:53:50.136Z,85.21
2022-08-19T17:56:16.864Z,85.58
2022-08-19T17:58:44.161Z,85.75
2022-08-19T18:01:17.205Z,85.59
2022-08-19T18:03:47.483Z,85.54
2022-08-19T18:06:14.682Z,85.94
2022-08-19T18:08:41.522Z,85.86
2022-08-19T18:11:09.045Z,85.96
2022-08-19T18:13:36.287Z,85.90
2022-08-19T18:16:04.131Z,85.39
2022-08-19T18:18:32.022Z,85.86
2022-08-19T18:20:58.562Z,86.27
2022-08-19T18:23:41.320Z,86.09
2022-08-19T18:26:11.522Z,86.41
2022-08-19T18:28:38.185Z,86.29
2022-08-19T18:31:04.885Z,86.89
2022-08-19T18:33:32.811Z,86.25
2022-08-19T18:36:10.802Z,86.35
2022-08-19T18:38:37.316Z,87.36
2022-08-19T18:41:04.677Z,86.97
2022-08-19T18:43:31.185Z,87.36
2022-08-19T18:45:57.716Z,87.00
2022-08-19T18:48:27.132Z,87.58
2022-08-19T18:50:57.002Z,87.30
2022-08-19T18:53:24.597Z,87.36
2022-08-19T18:55:51.580Z,87.07
2022-08-19T18:58:18.081Z,87.14
2022-08-19T19:00:44.663Z,86.95
2022-08-19T19:03:11.252Z,87.82
2022-08-19T19:05:37.870Z,87.28
2022-08-19T19:08:05.887Z,87.08
2022-08-19T19:10:32.996Z,86.67
2022-08-19T19:12:59.525Z,86.08
2022-08-19T19:15:26.061Z,86.15
2022-08-19T19:17:52.922Z,86.19
2022-08-19T19:20:19.452Z,86.40
2022-08-19T19:22:46.043Z,86.12
2022-08-19T19:25:13.890Z,86.24
2022-08-19T19:27:40.427Z,86.16
2022-08-19T19:30:10.510Z,86.25
2022-08-19T19:32:39.275Z,86.44
2022-08-19T19:35:07.748Z,86.56
2022-08-19T19:37:34.275Z,86.31
2022-08-19T19:40:00.992Z,86.51
2022-08-19T19:42:28.875Z,86.46
2022-08-19T19:44:56.051Z,86.28
2022-08-19T19:47:23.413Z,86.76
2022-08-19T19:50:12.783Z,86.92
2022-08-19T19:52:36.708Z,86.62
2022-08-19T19:55:04.058Z,87.30
2022-08-19T19:57:32.118Z,86.68
2022-08-19T19:59:58.632Z,86.50
2022-08-19T20:02:25.391Z,86.75
2022-08-19T20:04:52.054Z,86.77
2022-08-19T20:07:18.618Z,86.74
2022-08-19T20:09:59.261Z,86.69
2022-08-19T20:12:26.896Z,86.92
2022-08-19T20:14:54.770Z,86.98
2022-08-19T20:17:21.358Z,86.92
2022-08-19T20:19:48.025Z,86.88
2022-08-19T20:22:14.770Z,86.45
2022-08-19T20:24:41.293Z,87.30
2022-08-19T20:27:07.873Z,87.41
2022-08-19T20:29:38.837Z,86.97
2022-08-19T20:32:10.517Z,86.69
2022-08-19T20:34:37.669Z,86.89
2022-08-19T20:37:04.311Z,87.15
2022-08-19T20:39:31.052Z,87.13
2022-08-19T20:41:57.631Z,86.79
2022-08-19T20:44:24.179Z,86.93
2022-08-19T20:46:54.735Z,87.26
2022-08-19T20:49:27.243Z,87.00
2022-08-19T20:51:54.448Z,87.15
2022-08-19T20:54:21.412Z,86.69
2022-08-19T20:56:47.934Z,86.95
2022-08-19T20:59:14.578Z,87.77
2022-08-19T21:01:41.093Z,87.21
2022-08-19T21:04:07.638Z,87.32
2022-08-19T21:06:36.077Z,87.58
2022-08-19T21:09:02.642Z,87.29
2022-08-19T21:11:29.196Z,87.28
2022-08-19T21:13:55.731Z,87.13
2022-08-19T21:16:22.331Z,87.33
2022-08-19T21:18:48.863Z,87.13
2022-08-19T21:21:15.435Z,87.06
2022-08-19T21:23:44.124Z,87.03
2022-08-19T21:26:10.887Z,87.25
2022-08-19T21:28:37.457Z,87.24
2022-08-19T21:31:06.606Z,86.94
2022-08-19T21:33:33.470Z,87.15
2022-08-19T21:36:00.169Z,87.58
2022-08-19T21:38:27.337Z,88.55
2022-08-19T21:40:55.316Z,89.10
2022-08-19T21:43:22.171Z,89.00
2022-08-19T21:45:49.091Z,89.86
2022-08-19T21:48:15.761Z,91.28
2022-08-19T21:50:42.528Z,91.13
2022-08-19T21:53:09.097Z,91.06
2022-08-19T21:55:39.120Z,91.33
2022-08-19T21:58:06.967Z,90.77
2022-08-19T22:00:33.634Z,90.71
2022-08-19T22:03:00.571Z,90.65
2022-08-19T22:05:27.931Z,91.23
2022-08-19T22:07:56.175Z,90.80
2022-08-19T22:10:26.206Z,90.76
2022-08-19T22:12:52.986Z,90.16
2022-08-19T22:15:21.055Z,90.88
2022-08-19T22:17:48.151Z,90.09
2022-08-19T22:20:18.038Z,90.91
2022-08-19T22:22:46.926Z,90.62
2022-08-19T22:25:30.064Z,90.71
2022-08-19T22:28:00.478Z,90.80
2022-08-19T22:30:33.109Z,91.50
2022-08-19T22:33:02.480Z,91.91
2022-08-19T22:35:32.512Z,91.93
2022-08-19T22:37:59.187Z,92.69
2022-08-19T22:40:27.237Z,93.70
2022-08-19T22:42:57.871Z,93.79
2022-08-19T22:45:24.610Z,93.49
2022-08-19T22:47:52.520Z,93.20
2022-08-19T22:50:19.318Z,93.39
2022-08-19T22:52:52.049Z,92.85
2022-08-19T22:55:19.230Z,92.99
2022-08-19T22:57:45.747Z,91.59
2022-08-19T23:00:13.427Z,92.00
2022-08-19T23:02:51.751Z,92.27
2022-08-19T23:05:23.117Z,92.68
2022-08-19T23:07:53.940Z,92.22
2022-08-19T23:10:27.257Z,91.53
2022-08-19T23:12:57.062Z,91.58
2022-08-19T23:15:26.018Z,90.71
2022-08-19T23:17:54.138Z,90.07
2022-08-19T23:20:24.077Z,90.16
2022-08-19T23:22:50.603Z,90.43
2022-08-19T23:25:19.831Z,90.87
2022-08-19T23:27:46.561Z,91.35
2022-08-19T23:30:13.299Z,90.95
2022-08-19T23:32:39.881Z,91.62
2022-08-19T23:35:06.862Z,92.11
2022-08-19T23:37:34.721Z,92.12
2022-08-19T23:40:01.346Z,92.69
2022-08-19T23:42:27.920Z,92.51
2022-08-19T23:45:00.338Z,92.45
2022-08-19T23:47:26.903Z,92.27
2022-08-19T23:49:53.480Z,91.30
2022-08-19T23:52:20.091Z,90.84
2022-08-19T23:54:47.977Z,91.12
2022-08-19T23:57:14.820Z,92.00
2022-08-19T23:59:43.215Z,91.84
